sensor_id;sensor_type;location;lat;lon;timestamp;temperature;humidity
73254;DHT22;61474;50.834;4.552;2022-10-19T00:01:57;23.50;63.70
73254;DHT22;61474;50.834;4.552;2022-10-19T00:04:23;23.50;63.70
73254;DHT22;61474;50.834;4.552;2022-10-19T00:06:48;23.50;63.50
73254;DHT22;61474;50.834;4.552;2022-10-19T00:09:15;23.50;63.70
73254;DHT22;61474;50.834;4.552;2022-10-19T00:11:42;23.50;63.40
73254;DHT22;61474;50.834;4.552;2022-10-19T00:14:10;23.50;63.60
73254;DHT22;61474;50.834;4.552;2022-10-19T00:16:36;23.50;63.40
73254;DHT22;61474;50.834;4.552;2022-10-19T00:19:05;23.60;63.50
73254;DHT22;61474;50.834;4.552;2022-10-19T00:21:30;23.60;63.40
73254;DHT22;61474;50.834;4.552;2022-10-19T00:23:56;23.50;63.70
73254;DHT22;61474;50.834;4.552;2022-10-19T00:26:22;23.50;63.50
73254;DHT22;61474;50.834;4.552;2022-10-19T00:28:47;23.50;63.80
73254;DHT22;61474;50.834;4.552;2022-10-19T00:31:14;23.50;63.60
73254;DHT22;61474;50.834;4.552;2022-10-19T00:33:40;23.50;63.50
73254;DHT22;61474;50.834;4.552;2022-10-19T00:36:11;23.50;63.90
73254;DHT22;61474;50.834;4.552;2022-10-19T00:38:38;23.50;63.70
73254;DHT22;61474;50.834;4.552;2022-10-19T00:41:05;23.50;63.60
73254;DHT22;61474;50.834;4.552;2022-10-19T00:43:30;23.60;63.50
73254;DHT22;61474;50.834;4.552;2022-10-19T00:45:56;23.50;63.40
73254;DHT22;61474;50.834;4.552;2022-10-19T00:48:23;23.50;63.50
73254;DHT22;61474;50.834;4.552;2022-10-19T00:50:50;23.50;63.60
73254;DHT22;61474;50.834;4.552;2022-10-19T00:53:17;23.50;63.40
73254;DHT22;61474;50.834;4.552;2022-10-19T00:55:43;23.50;63.60
73254;DHT22;61474;50.834;4.552;2022-10-19T00:58:09;23.50;63.70
73254;DHT22;61474;50.834;4.552;2022-10-19T01:00:34;23.50;63.70
73254;DHT22;61474;50.834;4.552;2022-10-19T01:03:00;23.50;63.60
73254;DHT22;61474;50.834;4.552;2022-10-19T01:05:27;23.50;63.50
73254;DHT22;61474;50.834;4.552;2022-10-19T01:07:53;23.50;63.50
73254;DHT22;61474;50.834;4.552;2022-10-19T01:10:18;23.50;63.40
73254;DHT22;61474;50.834;4.552;2022-10-19T01:12:50;23.50;63.40
73254;DHT22;61474;50.834;4.552;2022-10-19T01:18:07;23.50;63.30
73254;DHT22;61474;50.834;4.552;2022-10-19T01:20:41;23.50;63.30
73254;DHT22;61474;50.834;4.552;2022-10-19T01:23:22;23.50;63.40
73254;DHT22;61474;50.834;4.552;2022-10-19T01:28:44;23.50;63.50
73254;DHT22;61474;50.834;4.552;2022-10-19T01:36:50;23.50;63.70
73254;DHT22;61474;50.834;4.552;2022-10-19T01:39:23;23.50;63.30
73254;DHT22;61474;50.834;4.552;2022-10-19T01:41:59;23.50;63.30
73254;DHT22;61474;50.834;4.552;2022-10-19T01:44:28;23.50;63.40
73254;DHT22;61474;50.834;4.552;2022-10-19T01:46:56;23.50;63.30
73254;DHT22;61474;50.834;4.552;2022-10-19T01:49:31;23.60;63.40
73254;DHT22;61474;50.834;4.552;2022-10-19T01:51:59;23.50;63.20
73254;DHT22;61474;50.834;4.552;2022-10-19T01:54:27;23.50;63.00
73254;DHT22;61474;50.834;4.552;2022-10-19T01:56:55;23.50;63.00
73254;DHT22;61474;50.834;4.552;2022-10-19T01:59:22;23.50;63.10
73254;DHT22;61474;50.834;4.552;2022-10-19T02:01:47;23.50;63.30
73254;DHT22;61474;50.834;4.552;2022-10-19T02:04:14;23.50;63.10
73254;DHT22;61474;50.834;4.552;2022-10-19T02:06:41;23.50;63.10
73254;DHT22;61474;50.834;4.552;2022-10-19T02:09:07;23.50;63.10
73254;DHT22;61474;50.834;4.552;2022-10-19T02:11:32;23.50;63.10
73254;DHT22;61474;50.834;4.552;2022-10-19T02:14:00;23.50;63.10
73254;DHT22;61474;50.834;4.552;2022-10-19T02:16:28;23.50;63.00
73254;DHT22;61474;50.834;4.552;2022-10-19T02:18:53;23.50;63.10
73254;DHT22;61474;50.834;4.552;2022-10-19T02:21:19;23.50;63.10
73254;DHT22;61474;50.834;4.552;2022-10-19T02:23:45;23.60;63.10
73254;DHT22;61474;50.834;4.552;2022-10-19T02:26:11;23.50;63.00
73254;DHT22;61474;50.834;4.552;2022-10-19T02:28:36;23.50;63.10
73254;DHT22;61474;50.834;4.552;2022-10-19T02:31:02;23.50;62.90
73254;DHT22;61474;50.834;4.552;2022-10-19T02:33:28;23.50;62.90
73254;DHT22;61474;50.834;4.552;2022-10-19T02:35:54;23.50;62.80
73254;DHT22;61474;50.834;4.552;2022-10-19T02:38:20;23.50;62.90
73254;DHT22;61474;50.834;4.552;2022-10-19T02:40:56;23.50;63.00
73254;DHT22;61474;50.834;4.552;2022-10-19T02:43:23;23.50;63.00
73254;DHT22;61474;50.834;4.552;2022-10-19T02:45:53;23.50;63.10
73254;DHT22;61474;50.834;4.552;2022-10-19T02:48:21;23.50;62.90
73254;DHT22;61474;50.834;4.552;2022-10-19T02:50:48;23.50;63.10
73254;DHT22;61474;50.834;4.552;2022-10-19T02:53:13;23.50;62.90
73254;DHT22;61474;50.834;4.552;2022-10-19T02:55:39;23.50;62.90
73254;DHT22;61474;50.834;4.552;2022-10-19T02:58:05;23.50;63.10
73254;DHT22;61474;50.834;4.552;2022-10-19T03:00:31;23.40;63.00
73254;DHT22;61474;50.834;4.552;2022-10-19T03:02:56;23.50;62.90
73254;DHT22;61474;50.834;4.552;2022-10-19T03:05:21;23.50;62.90
73254;DHT22;61474;50.834;4.552;2022-10-19T03:07:47;23.50;62.90
73254;DHT22;61474;50.834;4.552;2022-10-19T03:10:12;23.40;62.90
73254;DHT22;61474;50.834;4.552;2022-10-19T03:12:38;23.40;62.90
73254;DHT22;61474;50.834;4.552;2022-10-19T03:15:03;23.40;62.90
73254;DHT22;61474;50.834;4.552;2022-10-19T03:17:29;23.40;62.60
73254;DHT22;61474;50.834;4.552;2022-10-19T03:19:54;23.50;62.60
73254;DHT22;61474;50.834;4.552;2022-10-19T03:22:20;23.40;62.50
73254;DHT22;61474;50.834;4.552;2022-10-19T03:24:45;23.50;62.70
73254;DHT22;61474;50.834;4.552;2022-10-19T03:27:11;23.50;62.70
73254;DHT22;61474;50.834;4.552;2022-10-19T03:29:36;23.40;62.70
73254;DHT22;61474;50.834;4.552;2022-10-19T03:32:02;23.50;62.60
73254;DHT22;61474;50.834;4.552;2022-10-19T03:34:27;23.40;62.70
73254;DHT22;61474;50.834;4.552;2022-10-19T03:36:53;23.40;62.60
73254;DHT22;61474;50.834;4.552;2022-10-19T03:39:20;23.40;62.60
73254;DHT22;61474;50.834;4.552;2022-10-19T03:41:45;23.50;62.60
73254;DHT22;61474;50.834;4.552;2022-10-19T03:44:11;23.50;62.60
73254;DHT22;61474;50.834;4.552;2022-10-19T03:46:37;23.50;62.50
73254;DHT22;61474;50.834;4.552;2022-10-19T03:49:02;23.40;62.70
73254;DHT22;61474;50.834;4.552;2022-10-19T03:51:28;23.40;62.80
73254;DHT22;61474;50.834;4.552;2022-10-19T03:53:56;23.50;62.60
73254;DHT22;61474;50.834;4.552;2022-10-19T03:56:22;23.50;62.60
73254;DHT22;61474;50.834;4.552;2022-10-19T03:58:48;23.50;62.60
73254;DHT22;61474;50.834;4.552;2022-10-19T04:01:15;23.50;62.60
73254;DHT22;61474;50.834;4.552;2022-10-19T04:03:41;23.50;62.50
73254;DHT22;61474;50.834;4.552;2022-10-19T04:06:08;23.40;62.50
73254;DHT22;61474;50.834;4.552;2022-10-19T04:08:34;23.50;62.80
73254;DHT22;61474;50.834;4.552;2022-10-19T04:11:03;23.40;62.30
73254;DHT22;61474;50.834;4.552;2022-10-19T04:13:29;23.40;62.70
73254;DHT22;61474;50.834;4.552;2022-10-19T04:15:55;23.40;62.60
73254;DHT22;61474;50.834;4.552;2022-10-19T04:18:20;23.40;62.60
73254;DHT22;61474;50.834;4.552;2022-10-19T04:20:46;23.40;62.60
73254;DHT22;61474;50.834;4.552;2022-10-19T04:23:11;23.50;62.60
73254;DHT22;61474;50.834;4.552;2022-10-19T04:25:37;23.40;62.50
73254;DHT22;61474;50.834;4.552;2022-10-19T04:28:02;23.40;62.60
73254;DHT22;61474;50.834;4.552;2022-10-19T04:30:28;23.40;62.60
73254;DHT22;61474;50.834;4.552;2022-10-19T04:32:53;23.40;62.50
73254;DHT22;61474;50.834;4.552;2022-10-19T04:35:18;23.40;62.40
73254;DHT22;61474;50.834;4.552;2022-10-19T04:37:44;23.40;62.40
73254;DHT22;61474;50.834;4.552;2022-10-19T04:40:09;23.40;62.60
73254;DHT22;61474;50.834;4.552;2022-10-19T04:42:35;23.40;62.60
73254;DHT22;61474;50.834;4.552;2022-10-19T04:45:01;23.40;62.50
73254;DHT22;61474;50.834;4.552;2022-10-19T04:47:27;23.40;62.60
73254;DHT22;61474;50.834;4.552;2022-10-19T04:49:53;23.40;62.40
73254;DHT22;61474;50.834;4.552;2022-10-19T04:52:18;23.40;62.60
73254;DHT22;61474;50.834;4.552;2022-10-19T04:54:44;23.40;62.30
73254;DHT22;61474;50.834;4.552;2022-10-19T04:57:10;23.40;62.60
73254;DHT22;61474;50.834;4.552;2022-10-19T04:59:35;23.40;62.40
73254;DHT22;61474;50.834;4.552;2022-10-19T05:02:01;23.40;62.50
73254;DHT22;61474;50.834;4.552;2022-10-19T05:04:26;23.40;62.50
73254;DHT22;61474;50.834;4.552;2022-10-19T05:06:51;23.40;62.30
73254;DHT22;61474;50.834;4.552;2022-10-19T05:09:17;23.40;62.20
73254;DHT22;61474;50.834;4.552;2022-10-19T05:11:42;23.40;62.60
73254;DHT22;61474;50.834;4.552;2022-10-19T05:14:08;23.40;62.30
73254;DHT22;61474;50.834;4.552;2022-10-19T05:16:33;23.40;62.30
73254;DHT22;61474;50.834;4.552;2022-10-19T05:18:59;23.40;62.30
73254;DHT22;61474;50.834;4.552;2022-10-19T05:21:26;23.40;62.10
73254;DHT22;61474;50.834;4.552;2022-10-19T05:23:53;23.40;62.40
73254;DHT22;61474;50.834;4.552;2022-10-19T05:26:19;23.40;62.30
73254;DHT22;61474;50.834;4.552;2022-10-19T05:28:48;23.40;62.20
73254;DHT22;61474;50.834;4.552;2022-10-19T05:31:15;23.40;62.20
73254;DHT22;61474;50.834;4.552;2022-10-19T05:33:41;23.40;62.20
73254;DHT22;61474;50.834;4.552;2022-10-19T05:38:38;23.40;62.20
73254;DHT22;61474;50.834;4.552;2022-10-19T05:41:03;23.40;62.10
73254;DHT22;61474;50.834;4.552;2022-10-19T05:43:29;23.40;62.00
73254;DHT22;61474;50.834;4.552;2022-10-19T05:45:54;23.40;62.00
73254;DHT22;61474;50.834;4.552;2022-10-19T05:48:19;23.40;62.00
73254;DHT22;61474;50.834;4.552;2022-10-19T05:50:52;23.40;62.10
73254;DHT22;61474;50.834;4.552;2022-10-19T05:53:18;23.40;62.30
73254;DHT22;61474;50.834;4.552;2022-10-19T05:55:44;23.40;62.00
73254;DHT22;61474;50.834;4.552;2022-10-19T05:58:09;23.40;62.00
73254;DHT22;61474;50.834;4.552;2022-10-19T06:00:35;23.40;62.00
73254;DHT22;61474;50.834;4.552;2022-10-19T06:03:00;23.40;62.30
73254;DHT22;61474;50.834;4.552;2022-10-19T06:05:26;23.40;62.10
73254;DHT22;61474;50.834;4.552;2022-10-19T06:07:51;23.40;62.10
73254;DHT22;61474;50.834;4.552;2022-10-19T06:10:16;23.40;62.10
73254;DHT22;61474;50.834;4.552;2022-10-19T06:12:43;23.40;62.00
73254;DHT22;61474;50.834;4.552;2022-10-19T06:15:08;23.40;62.00
73254;DHT22;61474;50.834;4.552;2022-10-19T06:17:34;23.40;61.90
73254;DHT22;61474;50.834;4.552;2022-10-19T06:19:59;23.40;62.00
73254;DHT22;61474;50.834;4.552;2022-10-19T06:22:25;23.40;62.00
73254;DHT22;61474;50.834;4.552;2022-10-19T06:24:50;23.40;62.00
73254;DHT22;61474;50.834;4.552;2022-10-19T06:27:16;23.40;62.10
73254;DHT22;61474;50.834;4.552;2022-10-19T06:29:41;23.40;62.10
73254;DHT22;61474;50.834;4.552;2022-10-19T06:32:07;23.40;61.90
73254;DHT22;61474;50.834;4.552;2022-10-19T06:34:32;23.40;61.90
73254;DHT22;61474;50.834;4.552;2022-10-19T06:36:57;23.40;61.90
73254;DHT22;61474;50.834;4.552;2022-10-19T06:39:23;23.40;62.00
73254;DHT22;61474;50.834;4.552;2022-10-19T06:41:48;23.40;62.00
73254;DHT22;61474;50.834;4.552;2022-10-19T06:44:14;23.40;61.80
73254;DHT22;61474;50.834;4.552;2022-10-19T06:46:39;23.40;61.90
73254;DHT22;61474;50.834;4.552;2022-10-19T06:49:05;23.40;62.00
73254;DHT22;61474;50.834;4.552;2022-10-19T06:51:30;23.40;62.00
73254;DHT22;61474;50.834;4.552;2022-10-19T06:53:58;23.40;62.00
73254;DHT22;61474;50.834;4.552;2022-10-19T06:56:24;23.40;62.00
73254;DHT22;61474;50.834;4.552;2022-10-19T06:58:50;23.40;62.00
73254;DHT22;61474;50.834;4.552;2022-10-19T07:01:15;23.40;61.90
73254;DHT22;61474;50.834;4.552;2022-10-19T07:03:41;23.40;62.00
73254;DHT22;61474;50.834;4.552;2022-10-19T07:06:09;23.40;62.00
73254;DHT22;61474;50.834;4.552;2022-10-19T07:08:35;23.40;62.00
73254;DHT22;61474;50.834;4.552;2022-10-19T07:11:01;23.40;62.30
73254;DHT22;61474;50.834;4.552;2022-10-19T07:13:28;23.40;61.90
73254;DHT22;61474;50.834;4.552;2022-10-19T07:16:01;23.40;61.90
73254;DHT22;61474;50.834;4.552;2022-10-19T07:18:29;23.40;61.90
73254;DHT22;61474;50.834;4.552;2022-10-19T07:20:56;23.40;61.80
73254;DHT22;61474;50.834;4.552;2022-10-19T07:23:22;23.40;61.80
73254;DHT22;61474;50.834;4.552;2022-10-19T07:25:48;23.40;61.80
73254;DHT22;61474;50.834;4.552;2022-10-19T07:28:13;23.40;61.90
73254;DHT22;61474;50.834;4.552;2022-10-19T07:30:39;23.40;62.00
73254;DHT22;61474;50.834;4.552;2022-10-19T07:33:04;23.40;61.90
73254;DHT22;61474;50.834;4.552;2022-10-19T07:35:30;23.40;61.90
73254;DHT22;61474;50.834;4.552;2022-10-19T07:37:56;23.40;61.80
73254;DHT22;61474;50.834;4.552;2022-10-19T07:40:21;23.40;61.90
73254;DHT22;61474;50.834;4.552;2022-10-19T07:42:47;23.40;61.80
73254;DHT22;61474;50.834;4.552;2022-10-19T07:45:12;23.40;61.90
73254;DHT22;61474;50.834;4.552;2022-10-19T07:47:38;23.40;61.80
73254;DHT22;61474;50.834;4.552;2022-10-19T07:50:03;23.40;61.70
73254;DHT22;61474;50.834;4.552;2022-10-19T07:52:29;23.40;61.80
73254;DHT22;61474;50.834;4.552;2022-10-19T07:54:54;23.40;61.80
73254;DHT22;61474;50.834;4.552;2022-10-19T07:57:20;23.50;61.80
73254;DHT22;61474;50.834;4.552;2022-10-19T07:59:46;23.50;61.80
73254;DHT22;61474;50.834;4.552;2022-10-19T08:02:15;23.50;61.60
73254;DHT22;61474;50.834;4.552;2022-10-19T08:04:41;23.50;61.70
73254;DHT22;61474;50.834;4.552;2022-10-19T08:07:06;23.50;61.80
73254;DHT22;61474;50.834;4.552;2022-10-19T08:09:32;23.50;61.80
73254;DHT22;61474;50.834;4.552;2022-10-19T08:11:57;23.50;61.80
73254;DHT22;61474;50.834;4.552;2022-10-19T08:14:23;23.50;61.80
73254;DHT22;61474;50.834;4.552;2022-10-19T08:16:48;23.40;62.00
73254;DHT22;61474;50.834;4.552;2022-10-19T08:19:14;23.50;62.40
73254;DHT22;61474;50.834;4.552;2022-10-19T08:21:41;23.40;62.10
73254;DHT22;61474;50.834;4.552;2022-10-19T08:24:07;23.50;61.80
73254;DHT22;61474;50.834;4.552;2022-10-19T08:26:34;23.40;62.00
73254;DHT22;61474;50.834;4.552;2022-10-19T08:29:00;23.50;62.00
73254;DHT22;61474;50.834;4.552;2022-10-19T08:31:26;23.50;61.80
73254;DHT22;61474;50.834;4.552;2022-10-19T08:33:51;23.50;61.60
73254;DHT22;61474;50.834;4.552;2022-10-19T08:36:17;23.50;61.50
73254;DHT22;61474;50.834;4.552;2022-10-19T08:38:44;23.50;61.40
73254;DHT22;61474;50.834;4.552;2022-10-19T08:41:19;23.60;61.30
73254;DHT22;61474;50.834;4.552;2022-10-19T08:43:55;23.60;61.40
73254;DHT22;61474;50.834;4.552;2022-10-19T08:46:35;23.60;61.20
73254;DHT22;61474;50.834;4.552;2022-10-19T08:49:06;23.60;61.30
73254;DHT22;61474;50.834;4.552;2022-10-19T08:51:34;23.60;61.30
73254;DHT22;61474;50.834;4.552;2022-10-19T08:54:02;23.60;61.30
73254;DHT22;61474;50.834;4.552;2022-10-19T08:56:30;23.60;61.40
73254;DHT22;61474;50.834;4.552;2022-10-19T09:06:38;23.60;61.40
73254;DHT22;61474;50.834;4.552;2022-10-19T09:09:05;23.60;61.20
73254;DHT22;61474;50.834;4.552;2022-10-19T09:11:31;23.60;61.30
73254;DHT22;61474;50.834;4.552;2022-10-19T09:14:04;23.60;61.40
73254;DHT22;61474;50.834;4.552;2022-10-19T09:16:30;23.60;61.30
73254;DHT22;61474;50.834;4.552;2022-10-19T09:18:57;23.50;61.50
73254;DHT22;61474;50.834;4.552;2022-10-19T09:21:23;23.50;61.40
73254;DHT22;61474;50.834;4.552;2022-10-19T09:24:07;23.50;61.70
73254;DHT22;61474;50.834;4.552;2022-10-19T09:26:41;23.50;61.50
73254;DHT22;61474;50.834;4.552;2022-10-19T09:31:48;23.50;61.50
73254;DHT22;61474;50.834;4.552;2022-10-19T09:34:20;23.50;61.70
73254;DHT22;61474;50.834;4.552;2022-10-19T09:36:48;23.50;61.60
73254;DHT22;61474;50.834;4.552;2022-10-19T09:39:15;23.50;61.60
73254;DHT22;61474;50.834;4.552;2022-10-19T09:44:16;23.50;61.50
73254;DHT22;61474;50.834;4.552;2022-10-19T09:46:49;23.50;61.50
73254;DHT22;61474;50.834;4.552;2022-10-19T09:49:37;23.50;61.40
73254;DHT22;61474;50.834;4.552;2022-10-19T09:52:02;23.50;61.50
73254;DHT22;61474;50.834;4.552;2022-10-19T09:54:35;23.50;61.40
73254;DHT22;61474;50.834;4.552;2022-10-19T09:57:02;23.50;61.50
73254;DHT22;61474;50.834;4.552;2022-10-19T09:59:36;23.50;61.50
73254;DHT22;61474;50.834;4.552;2022-10-19T10:02:16;23.50;61.50
73254;DHT22;61474;50.834;4.552;2022-10-19T10:04:45;23.50;61.30
73254;DHT22;61474;50.834;4.552;2022-10-19T10:07:15;23.50;61.50
73254;DHT22;61474;50.834;4.552;2022-10-19T10:09:42;23.50;61.70
73254;DHT22;61474;50.834;4.552;2022-10-19T10:12:08;23.50;61.60
73254;DHT22;61474;50.834;4.552;2022-10-19T10:14:34;23.50;61.50
73254;DHT22;61474;50.834;4.552;2022-10-19T10:17:13;23.50;61.50
73254;DHT22;61474;50.834;4.552;2022-10-19T10:19:48;23.50;61.40
73254;DHT22;61474;50.834;4.552;2022-10-19T10:22:24;23.50;61.30
73254;DHT22;61474;50.834;4.552;2022-10-19T10:24:51;23.50;61.50
73254;DHT22;61474;50.834;4.552;2022-10-19T10:27:24;23.50;61.30
73254;DHT22;61474;50.834;4.552;2022-10-19T10:29:53;23.60;61.30
73254;DHT22;61474;50.834;4.552;2022-10-19T10:32:18;23.60;61.50
73254;DHT22;61474;50.834;4.552;2022-10-19T10:37:17;23.50;61.40
73254;DHT22;61474;50.834;4.552;2022-10-19T10:39:44;23.50;61.20
73254;DHT22;61474;50.834;4.552;2022-10-19T10:42:10;23.50;61.50
73254;DHT22;61474;50.834;4.552;2022-10-19T10:44:42;23.50;61.60
73254;DHT22;61474;50.834;4.552;2022-10-19T10:47:11;23.50;61.30
73254;DHT22;61474;50.834;4.552;2022-10-19T10:49:38;23.60;61.40
73254;DHT22;61474;50.834;4.552;2022-10-19T10:52:09;23.60;61.20
73254;DHT22;61474;50.834;4.552;2022-10-19T10:54:34;23.60;61.20
73254;DHT22;61474;50.834;4.552;2022-10-19T10:57:07;23.60;61.10
73254;DHT22;61474;50.834;4.552;2022-10-19T11:00:21;23.60;61.20
73254;DHT22;61474;50.834;4.552;2022-10-19T11:05:09;23.60;61.20
73254;DHT22;61474;50.834;4.552;2022-10-19T11:07:35;23.60;61.40
73254;DHT22;61474;50.834;4.552;2022-10-19T11:10:06;23.60;61.50
73254;DHT22;61474;50.834;4.552;2022-10-19T11:12:40;23.60;61.50
73254;DHT22;61474;50.834;4.552;2022-10-19T11:17:33;23.60;61.50
73254;DHT22;61474;50.834;4.552;2022-10-19T11:20:00;23.60;61.70
73254;DHT22;61474;50.834;4.552;2022-10-19T11:24:58;23.60;61.40
73254;DHT22;61474;50.834;4.552;2022-10-19T11:27:33;23.70;61.50
73254;DHT22;61474;50.834;4.552;2022-10-19T11:40:39;23.60;61.60
73254;DHT22;61474;50.834;4.552;2022-10-19T11:43:13;23.60;61.60
73254;DHT22;61474;50.834;4.552;2022-10-19T11:45:46;23.70;61.60
73254;DHT22;61474;50.834;4.552;2022-10-19T11:51:07;23.70;61.40
73254;DHT22;61474;50.834;4.552;2022-10-19T11:56:34;23.70;61.30
73254;DHT22;61474;50.834;4.552;2022-10-19T12:02:00;23.70;61.40
73254;DHT22;61474;50.834;4.552;2022-10-19T12:04:34;23.70;61.10
73254;DHT22;61474;50.834;4.552;2022-10-19T12:07:06;23.70;61.20
73254;DHT22;61474;50.834;4.552;2022-10-19T12:12:07;23.70;61.10
73254;DHT22;61474;50.834;4.552;2022-10-19T12:14:36;23.70;61.00
73254;DHT22;61474;50.834;4.552;2022-10-19T12:17:07;23.70;61.10
73254;DHT22;61474;50.834;4.552;2022-10-19T12:19:44;23.70;61.00
73254;DHT22;61474;50.834;4.552;2022-10-19T12:22:21;23.70;61.10
73254;DHT22;61474;50.834;4.552;2022-10-19T12:24:47;23.70;60.90
73254;DHT22;61474;50.834;4.552;2022-10-19T12:27:15;23.80;61.00
73254;DHT22;61474;50.834;4.552;2022-10-19T12:29:42;23.70;61.00
73254;DHT22;61474;50.834;4.552;2022-10-19T12:32:09;23.70;61.10
73254;DHT22;61474;50.834;4.552;2022-10-19T12:37:30;23.80;61.00
73254;DHT22;61474;50.834;4.552;2022-10-19T12:39:55;23.80;60.90
73254;DHT22;61474;50.834;4.552;2022-10-19T12:45:17;23.70;60.90
73254;DHT22;61474;50.834;4.552;2022-10-19T12:48:13;23.80;60.90
73254;DHT22;61474;50.834;4.552;2022-10-19T12:51:14;23.80;60.90
73254;DHT22;61474;50.834;4.552;2022-10-19T12:56:05;23.80;60.90
73254;DHT22;61474;50.834;4.552;2022-10-19T13:01:03;23.80;60.80
73254;DHT22;61474;50.834;4.552;2022-10-19T13:03:30;23.70;60.80
73254;DHT22;61474;50.834;4.552;2022-10-19T13:05:58;23.80;60.80
73254;DHT22;61474;50.834;4.552;2022-10-19T13:08:31;23.80;60.80
73254;DHT22;61474;50.834;4.552;2022-10-19T13:11:06;23.80;60.70
73254;DHT22;61474;50.834;4.552;2022-10-19T13:19:01;23.80;60.80
73254;DHT22;61474;50.834;4.552;2022-10-19T13:24:18;23.80;60.60
73254;DHT22;61474;50.834;4.552;2022-10-19T13:26:43;23.80;60.70
73254;DHT22;61474;50.834;4.552;2022-10-19T13:29:23;23.80;60.80
73254;DHT22;61474;50.834;4.552;2022-10-19T13:31:49;23.80;60.70
73254;DHT22;61474;50.834;4.552;2022-10-19T13:34:14;23.80;60.80
73254;DHT22;61474;50.834;4.552;2022-10-19T13:36:52;23.80;60.80
73254;DHT22;61474;50.834;4.552;2022-10-19T13:39:23;23.80;60.80
73254;DHT22;61474;50.834;4.552;2022-10-19T13:41:50;23.80;60.70
73254;DHT22;61474;50.834;4.552;2022-10-19T13:44:20;23.80;60.80
73254;DHT22;61474;50.834;4.552;2022-10-19T13:46:49;23.80;60.80
73254;DHT22;61474;50.834;4.552;2022-10-19T13:59:44;23.80;60.50
73254;DHT22;61474;50.834;4.552;2022-10-19T14:07:20;23.80;60.60
73254;DHT22;61474;50.834;4.552;2022-10-19T14:10:22;23.80;60.60
73254;DHT22;61474;50.834;4.552;2022-10-19T14:12:41;23.80;60.60
73254;DHT22;61474;50.834;4.552;2022-10-19T14:15:11;23.80;60.80
73254;DHT22;61474;50.834;4.552;2022-10-19T14:17:39;23.80;60.80
73254;DHT22;61474;50.834;4.552;2022-10-19T14:20:26;23.80;60.80
73254;DHT22;61474;50.834;4.552;2022-10-19T14:22:52;23.80;60.80
73254;DHT22;61474;50.834;4.552;2022-10-19T14:25:19;23.80;60.50
73254;DHT22;61474;50.834;4.552;2022-10-19T14:27:45;23.80;60.80
73254;DHT22;61474;50.834;4.552;2022-10-19T14:30:21;23.80;60.50
73254;DHT22;61474;50.834;4.552;2022-10-19T14:32:47;23.80;60.50
73254;DHT22;61474;50.834;4.552;2022-10-19T14:35:18;23.80;60.60
73254;DHT22;61474;50.834;4.552;2022-10-19T14:37:44;23.80;60.50
73254;DHT22;61474;50.834;4.552;2022-10-19T14:42:47;23.80;60.50
73254;DHT22;61474;50.834;4.552;2022-10-19T14:45:24;23.80;60.70
73254;DHT22;61474;50.834;4.552;2022-10-19T14:47:50;23.80;61.00
73254;DHT22;61474;50.834;4.552;2022-10-19T14:50:16;23.80;60.90
73254;DHT22;61474;50.834;4.552;2022-10-19T14:52:42;23.80;60.60
73254;DHT22;61474;50.834;4.552;2022-10-19T14:55:09;23.80;60.80
73254;DHT22;61474;50.834;4.552;2022-10-19T14:57:35;23.80;60.80
73254;DHT22;61474;50.834;4.552;2022-10-19T15:00:04;23.80;60.80
73254;DHT22;61474;50.834;4.552;2022-10-19T15:02:52;23.80;60.90
73254;DHT22;61474;50.834;4.552;2022-10-19T15:07:44;23.80;60.90
73254;DHT22;61474;50.834;4.552;2022-10-19T15:10:20;23.80;60.80
73254;DHT22;61474;50.834;4.552;2022-10-19T15:12:46;23.80;60.90
73254;DHT22;61474;50.834;4.552;2022-10-19T15:15:31;23.80;61.00
73254;DHT22;61474;50.834;4.552;2022-10-19T15:20:31;23.80;61.00
73254;DHT22;61474;50.834;4.552;2022-10-19T15:22:58;23.70;60.80
73254;DHT22;61474;50.834;4.552;2022-10-19T15:25:31;23.80;61.00
73254;DHT22;61474;50.834;4.552;2022-10-19T15:28:17;23.70;61.10
73254;DHT22;61474;50.834;4.552;2022-10-19T15:30:42;23.70;61.00
73254;DHT22;61474;50.834;4.552;2022-10-19T15:33:09;23.70;60.80
73254;DHT22;61474;50.834;4.552;2022-10-19T15:35:37;23.70;60.90
73254;DHT22;61474;50.834;4.552;2022-10-19T15:40:36;23.70;61.10
73254;DHT22;61474;50.834;4.552;2022-10-19T15:43:23;23.70;61.10
73254;DHT22;61474;50.834;4.552;2022-10-19T15:45:47;23.70;61.10
73254;DHT22;61474;50.834;4.552;2022-10-19T15:48:24;23.70;61.00
73254;DHT22;61474;50.834;4.552;2022-10-19T15:50:50;23.70;60.90
73254;DHT22;61474;50.834;4.552;2022-10-19T15:53:17;23.70;61.00
73254;DHT22;61474;50.834;4.552;2022-10-19T15:55:42;23.70;60.90
73254;DHT22;61474;50.834;4.552;2022-10-19T15:58:08;23.70;60.90
73254;DHT22;61474;50.834;4.552;2022-10-19T16:00:35;23.60;60.90
73254;DHT22;61474;50.834;4.552;2022-10-19T16:03:00;23.60;60.90
73254;DHT22;61474;50.834;4.552;2022-10-19T16:05:26;23.60;60.90
73254;DHT22;61474;50.834;4.552;2022-10-19T16:07:51;23.60;60.90
73254;DHT22;61474;50.834;4.552;2022-10-19T16:10:18;23.60;60.90
73254;DHT22;61474;50.834;4.552;2022-10-19T16:12:44;23.60;61.20
73254;DHT22;61474;50.834;4.552;2022-10-19T16:15:13;23.60;61.20
73254;DHT22;61474;50.834;4.552;2022-10-19T16:17:42;23.60;61.00
73254;DHT22;61474;50.834;4.552;2022-10-19T16:20:08;23.60;60.90
73254;DHT22;61474;50.834;4.552;2022-10-19T16:22:34;23.60;60.90
73254;DHT22;61474;50.834;4.552;2022-10-19T16:24:59;23.60;61.00
73254;DHT22;61474;50.834;4.552;2022-10-19T16:27:25;23.60;60.90
73254;DHT22;61474;50.834;4.552;2022-10-19T16:29:50;23.60;60.90
73254;DHT22;61474;50.834;4.552;2022-10-19T16:32:15;23.60;60.80
73254;DHT22;61474;50.834;4.552;2022-10-19T16:34:41;23.60;60.90
73254;DHT22;61474;50.834;4.552;2022-10-19T16:37:06;23.50;60.70
73254;DHT22;61474;50.834;4.552;2022-10-19T16:39:32;23.60;60.90
73254;DHT22;61474;50.834;4.552;2022-10-19T16:41:57;23.50;61.10
73254;DHT22;61474;50.834;4.552;2022-10-19T16:44:23;23.50;60.60
73254;DHT22;61474;50.834;4.552;2022-10-19T16:46:48;23.60;60.80
73254;DHT22;61474;50.834;4.552;2022-10-19T16:49:14;23.50;60.80
73254;DHT22;61474;50.834;4.552;2022-10-19T16:51:39;23.50;61.00
73254;DHT22;61474;50.834;4.552;2022-10-19T16:54:06;23.50;60.60
73254;DHT22;61474;50.834;4.552;2022-10-19T16:56:32;23.50;60.60
73254;DHT22;61474;50.834;4.552;2022-10-19T16:58:59;23.60;60.60
73254;DHT22;61474;50.834;4.552;2022-10-19T17:01:25;23.50;60.60
73254;DHT22;61474;50.834;4.552;2022-10-19T17:03:52;23.60;60.70
73254;DHT22;61474;50.834;4.552;2022-10-19T17:06:17;23.50;60.60
73254;DHT22;61474;50.834;4.552;2022-10-19T17:08:43;23.50;60.40
73254;DHT22;61474;50.834;4.552;2022-10-19T17:11:13;23.60;60.50
73254;DHT22;61474;50.834;4.552;2022-10-19T17:13:40;23.60;60.40
73254;DHT22;61474;50.834;4.552;2022-10-19T17:16:05;23.50;60.60
73254;DHT22;61474;50.834;4.552;2022-10-19T17:18:31;23.50;60.50